sensor_id;sensor_type;location;lat;lon;timestamp;P1;durP1;ratioP1;P2;durP2;ratioP2
54328;SDS011;40710;51.120;13.136;2023-06-22T00:01:39;13.22;;;13.22;;
54328;SDS011;40710;51.120;13.136;2023-06-22T00:04:03;13.67;;;13.67;;
54328;SDS011;40710;51.120;13.136;2023-06-22T00:06:28;13.64;;;13.64;;
54328;SDS011;40710;51.120;13.136;2023-06-22T00:08:52;13.95;;;13.95;;
54328;SDS011;40710;51.120;13.136;2023-06-22T00:11:17;13.82;;;13.82;;
54328;SDS011;40710;51.120;13.136;2023-06-22T00:13:41;14.35;;;14.35;;
54328;SDS011;40710;51.120;13.136;2023-06-22T00:16:06;13.69;;;13.69;;
54328;SDS011;40710;51.120;13.136;2023-06-22T00:18:30;13.66;;;13.66;;
54328;SDS011;40710;51.120;13.136;2023-06-22T00:20:56;13.76;;;13.76;;
54328;SDS011;40710;51.120;13.136;2023-06-22T00:23:24;14.48;;;14.48;;
54328;SDS011;40710;51.120;13.136;2023-06-22T00:25:49;13.90;;;13.90;;
54328;SDS011;40710;51.120;13.136;2023-06-22T00:28:13;14.23;;;14.23;;
54328;SDS011;40710;51.120;13.136;2023-06-22T00:30:38;13.85;;;13.85;;
54328;SDS011;40710;51.120;13.136;2023-06-22T00:33:02;13.81;;;13.81;;
54328;SDS011;40710;51.120;13.136;2023-06-22T00:35:27;13.48;;;13.48;;
54328;SDS011;40710;51.120;13.136;2023-06-22T00:37:53;13.18;;;13.18;;
54328;SDS011;40710;51.120;13.136;2023-06-22T00:40:24;13.33;;;13.33;;
54328;SDS011;40710;51.120;13.136;2023-06-22T00:42:48;13.21;;;13.21;;
54328;SDS011;40710;51.120;13.136;2023-06-22T00:45:13;13.66;;;13.66;;
54328;SDS011;40710;51.120;13.136;2023-06-22T00:47:38;13.60;;;13.60;;
54328;SDS011;40710;51.120;13.136;2023-06-22T00:50:02;12.94;;;12.94;;
54328;SDS011;40710;51.120;13.136;2023-06-22T00:52:30;12.92;;;12.92;;
54328;SDS011;40710;51.120;13.136;2023-06-22T00:54:59;13.11;;;13.11;;
54328;SDS011;40710;51.120;13.136;2023-06-22T00:57:25;13.26;;;13.26;;
54328;SDS011;40710;51.120;13.136;2023-06-22T00:59:52;13.09;;;13.09;;
54328;SDS011;40710;51.120;13.136;2023-06-22T01:02:16;12.95;;;12.95;;
54328;SDS011;40710;51.120;13.136;2023-06-22T01:04:41;12.84;;;12.84;;
54328;SDS011;40710;51.120;13.136;2023-06-22T01:10:22;13.16;;;13.16;;
54328;SDS011;40710;51.120;13.136;2023-06-22T01:12:52;13.28;;;13.28;;
54328;SDS011;40710;51.120;13.136;2023-06-22T01:17:57;12.93;;;12.93;;
54328;SDS011;40710;51.120;13.136;2023-06-22T01:20:23;13.08;;;13.08;;
54328;SDS011;40710;51.120;13.136;2023-06-22T01:23:02;13.40;;;13.40;;
54328;SDS011;40710;51.120;13.136;2023-06-22T01:25:32;13.74;;;13.74;;
54328;SDS011;40710;51.120;13.136;2023-06-22T01:31:00;13.46;;;13.46;;
54328;SDS011;40710;51.120;13.136;2023-06-22T01:33:29;13.71;;;13.71;;
54328;SDS011;40710;51.120;13.136;2023-06-22T01:35:57;13.74;;;13.73;;
54328;SDS011;40710;51.120;13.136;2023-06-22T01:38:24;14.23;;;14.23;;
54328;SDS011;40710;51.120;13.136;2023-06-22T01:40:49;14.36;;;14.36;;
54328;SDS011;40710;51.120;13.136;2023-06-22T01:43:15;14.45;;;14.45;;
54328;SDS011;40710;51.120;13.136;2023-06-22T01:45:40;13.99;;;13.99;;
54328;SDS011;40710;51.120;13.136;2023-06-22T01:48:06;14.61;;;14.61;;
54328;SDS011;40710;51.120;13.136;2023-06-22T01:50:31;14.43;;;14.43;;
54328;SDS011;40710;51.120;13.136;2023-06-22T01:52:56;13.95;;;13.95;;
54328;SDS011;40710;51.120;13.136;2023-06-22T01:55:20;14.86;;;14.86;;
54328;SDS011;40710;51.120;13.136;2023-06-22T01:57:45;14.70;;;14.70;;
54328;SDS011;40710;51.120;13.136;2023-06-22T02:00:11;14.89;;;14.89;;
54328;SDS011;40710;51.120;13.136;2023-06-22T02:02:44;14.80;;;14.80;;
54328;SDS011;40710;51.120;13.136;2023-06-22T02:05:17;15.07;;;15.07;;
54328;SDS011;40710;51.120;13.136;2023-06-22T02:07:49;15.03;;;15.03;;
54328;SDS011;40710;51.120;13.136;2023-06-22T02:10:24;14.71;;;14.71;;
54328;SDS011;40710;51.120;13.136;2023-06-22T02:12:53;14.44;;;14.44;;
54328;SDS011;40710;51.120;13.136;2023-06-22T02:15:21;14.60;;;14.60;;
54328;SDS011;40710;51.120;13.136;2023-06-22T02:17:45;14.85;;;14.85;;
54328;SDS011;40710;51.120;13.136;2023-06-22T02:20:12;14.10;;;14.10;;
54328;SDS011;40710;51.120;13.136;2023-06-22T02:22:38;14.40;;;14.40;;
54328;SDS011;40710;51.120;13.136;2023-06-22T02:25:02;14.24;;;14.24;;
54328;SDS011;40710;51.120;13.136;2023-06-22T02:27:27;14.69;;;14.69;;
54328;SDS011;40710;51.120;13.136;2023-06-22T02:29:51;13.99;;;13.99;;
54328;SDS011;40710;51.120;13.136;2023-06-22T02:32:16;14.68;;;14.68;;
54328;SDS011;40710;51.120;13.136;2023-06-22T02:34:41;14.91;;;14.91;;
54328;SDS011;40710;51.120;13.136;2023-06-22T02:37:07;14.79;;;14.79;;
54328;SDS011;40710;51.120;13.136;2023-06-22T02:39:31;14.61;;;14.61;;
54328;SDS011;40710;51.120;13.136;2023-06-22T02:41:56;14.46;;;14.46;;
54328;SDS011;40710;51.120;13.136;2023-06-22T02:44:20;14.81;;;14.81;;
54328;SDS011;40710;51.120;13.136;2023-06-22T02:46:45;14.80;;;14.80;;
54328;SDS011;40710;51.120;13.136;2023-06-22T02:49:11;15.21;;;15.21;;
54328;SDS011;40710;51.120;13.136;2023-06-22T02:51:38;15.34;;;15.34;;
54328;SDS011;40710;51.120;13.136;2023-06-22T02:54:03;14.83;;;14.83;;
54328;SDS011;40710;51.120;13.136;2023-06-22T02:56:28;15.07;;;15.07;;
54328;SDS011;40710;51.120;13.136;2023-06-22T02:58:54;15.15;;;15.15;;
54328;SDS011;40710;51.120;13.136;2023-06-22T03:01:24;14.57;;;14.57;;
54328;SDS011;40710;51.120;13.136;2023-06-22T03:03:49;14.79;;;14.79;;
54328;SDS011;40710;51.120;13.136;2023-06-22T03:06:14;14.65;;;14.65;;
54328;SDS011;40710;51.120;13.136;2023-06-22T03:08:38;14.70;;;14.70;;
54328;SDS011;40710;51.120;13.136;2023-06-22T03:11:03;14.41;;;14.41;;
54328;SDS011;40710;51.120;13.136;2023-06-22T03:13:27;14.62;;;14.62;;
54328;SDS011;40710;51.120;13.136;2023-06-22T03:15:52;14.58;;;14.58;;
54328;SDS011;40710;51.120;13.136;2023-06-22T03:18:17;14.73;;;14.73;;
54328;SDS011;40710;51.120;13.136;2023-06-22T03:20:42;15.28;;;15.28;;
54328;SDS011;40710;51.120;13.136;2023-06-22T03:23:06;14.45;;;14.45;;
54328;SDS011;40710;51.120;13.136;2023-06-22T03:25:31;14.78;;;14.78;;
54328;SDS011;40710;51.120;13.136;2023-06-22T03:27:55;14.99;;;14.99;;
54328;SDS011;40710;51.120;13.136;2023-06-22T03:30:20;14.11;;;14.11;;
54328;SDS011;40710;51.120;13.136;2023-06-22T03:32:44;14.65;;;14.65;;
54328;SDS011;40710;51.120;13.136;2023-06-22T03:35:10;14.47;;;14.47;;
54328;SDS011;40710;51.120;13.136;2023-06-22T03:37:38;14.91;;;14.91;;
54328;SDS011;40710;51.120;13.136;2023-06-22T03:40:02;15.00;;;15.00;;
54328;SDS011;40710;51.120;13.136;2023-06-22T03:42:29;14.85;;;14.85;;
54328;SDS011;40710;51.120;13.136;2023-06-22T03:44:54;15.76;;;15.76;;
54328;SDS011;40710;51.120;13.136;2023-06-22T03:47:18;15.13;;;15.13;;
54328;SDS011;40710;51.120;13.136;2023-06-22T03:49:43;15.35;;;15.30;;
54328;SDS011;40710;51.120;13.136;2023-06-22T03:52:08;15.21;;;15.21;;
54328;SDS011;40710;51.120;13.136;2023-06-22T03:54:32;15.05;;;15.05;;
54328;SDS011;40710;51.120;13.136;2023-06-22T03:56:57;14.91;;;14.91;;
54328;SDS011;40710;51.120;13.136;2023-06-22T03:59:22;15.28;;;15.26;;
54328;SDS011;40710;51.120;13.136;2023-06-22T04:01:47;15.72;;;15.71;;
54328;SDS011;40710;51.120;13.136;2023-06-22T04:04:11;15.08;;;15.08;;
54328;SDS011;40710;51.120;13.136;2023-06-22T04:06:36;15.73;;;15.73;;
54328;SDS011;40710;51.120;13.136;2023-06-22T04:09:01;15.51;;;15.51;;
54328;SDS011;40710;51.120;13.136;2023-06-22T04:11:26;15.43;;;15.43;;
54328;SDS011;40710;51.120;13.136;2023-06-22T04:13:51;15.42;;;15.42;;
54328;SDS011;40710;51.120;13.136;2023-06-22T04:16:15;15.51;;;15.51;;
54328;SDS011;40710;51.120;13.136;2023-06-22T04:18:40;14.95;;;14.95;;
54328;SDS011;40710;51.120;13.136;2023-06-22T04:21:05;15.04;;;15.04;;
54328;SDS011;40710;51.120;13.136;2023-06-22T04:23:30;15.46;;;15.46;;
54328;SDS011;40710;51.120;13.136;2023-06-22T04:25:55;15.72;;;15.72;;
54328;SDS011;40710;51.120;13.136;2023-06-22T04:28:20;14.88;;;14.88;;
54328;SDS011;40710;51.120;13.136;2023-06-22T04:30:45;15.68;;;15.68;;
54328;SDS011;40710;51.120;13.136;2023-06-22T04:33:16;15.27;;;15.27;;
54328;SDS011;40710;51.120;13.136;2023-06-22T04:35:41;15.41;;;15.41;;
54328;SDS011;40710;51.120;13.136;2023-06-22T04:38:06;15.27;;;15.27;;
54328;SDS011;40710;51.120;13.136;2023-06-22T04:40:30;15.50;;;15.49;;
54328;SDS011;40710;51.120;13.136;2023-06-22T04:42:55;14.94;;;14.94;;
54328;SDS011;40710;51.120;13.136;2023-06-22T04:45:19;14.89;;;14.89;;
54328;SDS011;40710;51.120;13.136;2023-06-22T04:47:45;14.94;;;14.94;;
54328;SDS011;40710;51.120;13.136;2023-06-22T04:50:09;14.90;;;14.90;;
54328;SDS011;40710;51.120;13.136;2023-06-22T04:52:34;15.10;;;15.10;;
54328;SDS011;40710;51.120;13.136;2023-06-22T04:54:58;15.72;;;15.72;;
54328;SDS011;40710;51.120;13.136;2023-06-22T04:57:24;15.61;;;15.61;;
54328;SDS011;40710;51.120;13.136;2023-06-22T04:59:56;15.03;;;15.03;;
54328;SDS011;40710;51.120;13.136;2023-06-22T05:02:20;15.05;;;15.05;;
54328;SDS011;40710;51.120;13.136;2023-06-22T05:04:45;15.35;;;15.35;;
54328;SDS011;40710;51.120;13.136;2023-06-22T05:07:15;14.75;;;14.75;;
54328;SDS011;40710;51.120;13.136;2023-06-22T05:09:39;15.43;;;15.43;;
54328;SDS011;40710;51.120;13.136;2023-06-22T05:12:04;15.95;;;15.95;;
54328;SDS011;40710;51.120;13.136;2023-06-22T05:14:29;16.23;;;16.23;;
54328;SDS011;40710;51.120;13.136;2023-06-22T05:16:54;17.66;;;17.66;;
54328;SDS011;40710;51.120;13.136;2023-06-22T05:19:22;16.79;;;16.79;;
54328;SDS011;40710;51.120;13.136;2023-06-22T05:21:47;16.87;;;16.87;;
54328;SDS011;40710;51.120;13.136;2023-06-22T05:24:11;16.78;;;16.78;;
54328;SDS011;40710;51.120;13.136;2023-06-22T05:26:36;15.91;;;15.91;;
54328;SDS011;40710;51.120;13.136;2023-06-22T05:29:01;15.90;;;15.90;;
54328;SDS011;40710;51.120;13.136;2023-06-22T05:31:26;16.01;;;16.01;;
54328;SDS011;40710;51.120;13.136;2023-06-22T05:33:51;15.95;;;15.95;;
54328;SDS011;40710;51.120;13.136;2023-06-22T05:36:17;15.81;;;15.81;;
54328;SDS011;40710;51.120;13.136;2023-06-22T05:38:44;15.61;;;15.61;;
54328;SDS011;40710;51.120;13.136;2023-06-22T05:41:08;15.80;;;15.80;;
54328;SDS011;40710;51.120;13.136;2023-06-22T05:43:33;15.26;;;15.26;;
54328;SDS011;40710;51.120;13.136;2023-06-22T05:45:57;15.06;;;15.06;;
54328;SDS011;40710;51.120;13.136;2023-06-22T05:48:24;15.08;;;15.08;;
54328;SDS011;40710;51.120;13.136;2023-06-22T05:50:49;15.64;;;15.64;;
54328;SDS011;40710;51.120;13.136;2023-06-22T05:53:14;14.68;;;14.68;;
54328;SDS011;40710;51.120;13.136;2023-06-22T05:55:39;15.03;;;15.03;;
54328;SDS011;40710;51.120;13.136;2023-06-22T05:58:03;16.41;;;16.41;;
54328;SDS011;40710;51.120;13.136;2023-06-22T06:00:28;15.58;;;15.58;;
54328;SDS011;40710;51.120;13.136;2023-06-22T06:02:53;14.87;;;14.87;;
54328;SDS011;40710;51.120;13.136;2023-06-22T06:05:17;14.50;;;14.50;;
54328;SDS011;40710;51.120;13.136;2023-06-22T06:07:42;14.06;;;14.06;;
54328;SDS011;40710;51.120;13.136;2023-06-22T06:10:07;14.14;;;14.14;;
54328;SDS011;40710;51.120;13.136;2023-06-22T06:12:32;14.08;;;14.08;;
54328;SDS011;40710;51.120;13.136;2023-06-22T06:14:57;14.32;;;14.32;;
54328;SDS011;40710;51.120;13.136;2023-06-22T06:17:21;14.37;;;14.37;;
54328;SDS011;40710;51.120;13.136;2023-06-22T06:19:46;14.11;;;14.11;;
54328;SDS011;40710;51.120;13.136;2023-06-22T06:22:10;13.95;;;13.95;;
54328;SDS011;40710;51.120;13.136;2023-06-22T06:24:35;14.03;;;14.03;;
54328;SDS011;40710;51.120;13.136;2023-06-22T06:26:59;13.95;;;13.95;;
54328;SDS011;40710;51.120;13.136;2023-06-22T06:29:24;14.58;;;14.58;;
54328;SDS011;40710;51.120;13.136;2023-06-22T06:31:49;14.64;;;14.64;;
54328;SDS011;40710;51.120;13.136;2023-06-22T06:34:14;14.90;;;14.90;;
54328;SDS011;40710;51.120;13.136;2023-06-22T06:36:39;14.75;;;14.75;;
54328;SDS011;40710;51.120;13.136;2023-06-22T06:39:03;14.25;;;14.25;;
54328;SDS011;40710;51.120;13.136;2023-06-22T06:41:28;14.43;;;14.43;;
54328;SDS011;40710;51.120;13.136;2023-06-22T06:43:52;13.89;;;13.89;;
54328;SDS011;40710;51.120;13.136;2023-06-22T06:46:17;13.72;;;13.72;;
54328;SDS011;40710;51.120;13.136;2023-06-22T06:48:43;14.46;;;14.46;;
54328;SDS011;40710;51.120;13.136;2023-06-22T06:51:07;14.73;;;14.73;;
54328;SDS011;40710;51.120;13.136;2023-06-22T06:53:35;14.54;;;14.54;;
54328;SDS011;40710;51.120;13.136;2023-06-22T06:56:01;13.70;;;13.70;;
54328;SDS011;40710;51.120;13.136;2023-06-22T06:58:26;14.26;;;14.26;;
54328;SDS011;40710;51.120;13.136;2023-06-22T07:00:50;13.79;;;13.79;;
54328;SDS011;40710;51.120;13.136;2023-06-22T07:03:15;13.94;;;13.94;;
54328;SDS011;40710;51.120;13.136;2023-06-22T07:05:39;17.95;;;17.95;;
54328;SDS011;40710;51.120;13.136;2023-06-22T07:08:04;23.34;;;23.34;;
54328;SDS011;40710;51.120;13.136;2023-06-22T07:10:29;15.31;;;15.31;;
54328;SDS011;40710;51.120;13.136;2023-06-22T07:12:53;13.64;;;13.64;;
54328;SDS011;40710;51.120;13.136;2023-06-22T07:15:18;13.85;;;13.85;;
54328;SDS011;40710;51.120;13.136;2023-06-22T07:17:43;13.70;;;13.70;;
54328;SDS011;40710;51.120;13.136;2023-06-22T07:20:08;13.07;;;13.07;;
54328;SDS011;40710;51.120;13.136;2023-06-22T07:22:34;13.45;;;13.45;;
54328;SDS011;40710;51.120;13.136;2023-06-22T07:24:59;13.55;;;13.55;;
54328;SDS011;40710;51.120;13.136;2023-06-22T07:27:23;13.16;;;13.16;;
54328;SDS011;40710;51.120;13.136;2023-06-22T07:29:48;12.87;;;12.87;;
54328;SDS011;40710;51.120;13.136;2023-06-22T07:32:13;12.64;;;12.64;;
54328;SDS011;40710;51.120;13.136;2023-06-22T07:34:37;12.45;;;12.45;;
54328;SDS011;40710;51.120;13.136;2023-06-22T07:37:02;12.27;;;12.27;;
54328;SDS011;40710;51.120;13.136;2023-06-22T07:39:28;12.92;;;12.92;;
54328;SDS011;40710;51.120;13.136;2023-06-22T07:41:53;13.42;;;13.42;;
54328;SDS011;40710;51.120;13.136;2023-06-22T07:44:18;13.28;;;13.28;;
54328;SDS011;40710;51.120;13.136;2023-06-22T07:46:42;12.49;;;12.49;;
54328;SDS011;40710;51.120;13.136;2023-06-22T07:49:07;12.33;;;12.33;;
54328;SDS011;40710;51.120;13.136;2023-06-22T07:51:32;12.62;;;12.62;;
54328;SDS011;40710;51.120;13.136;2023-06-22T07:53:57;19.13;;;19.13;;
54328;SDS011;40710;51.120;13.136;2023-06-22T07:56:21;28.58;;;28.58;;
54328;SDS011;40710;51.120;13.136;2023-06-22T07:58:46;16.65;;;16.65;;
54328;SDS011;40710;51.120;13.136;2023-06-22T08:01:12;13.72;;;13.72;;
54328;SDS011;40710;51.120;13.136;2023-06-22T08:03:36;12.49;;;12.49;;
54328;SDS011;40710;51.120;13.136;2023-06-22T08:06:01;12.83;;;12.83;;
54328;SDS011;40710;51.120;13.136;2023-06-22T08:08:26;13.28;;;13.28;;
54328;SDS011;40710;51.120;13.136;2023-06-22T08:10:50;13.16;;;13.16;;
54328;SDS011;40710;51.120;13.136;2023-06-22T08:13:15;13.64;;;13.64;;
54328;SDS011;40710;51.120;13.136;2023-06-22T08:15:40;12.39;;;12.39;;
54328;SDS011;40710;51.120;13.136;2023-06-22T08:18:04;11.38;;;11.38;;
54328;SDS011;40710;51.120;13.136;2023-06-22T08:20:29;12.90;;;12.90;;
54328;SDS011;40710;51.120;13.136;2023-06-22T08:22:54;11.64;;;11.64;;
54328;SDS011;40710;51.120;13.136;2023-06-22T08:25:19;11.88;;;11.88;;
54328;SDS011;40710;51.120;13.136;2023-06-22T08:27:45;11.86;;;11.86;;
54328;SDS011;40710;51.120;13.136;2023-06-22T08:30:11;12.97;;;12.97;;
54328;SDS011;40710;51.120;13.136;2023-06-22T08:32:36;12.22;;;12.22;;
54328;SDS011;40710;51.120;13.136;2023-06-22T08:35:00;13.46;;;13.46;;
54328;SDS011;40710;51.120;13.136;2023-06-22T08:37:25;11.99;;;11.99;;
54328;SDS011;40710;51.120;13.136;2023-06-22T08:39:54;12.71;;;12.71;;
54328;SDS011;40710;51.120;13.136;2023-06-22T08:42:19;13.16;;;13.16;;
54328;SDS011;40710;51.120;13.136;2023-06-22T08:44:43;13.25;;;13.25;;
54328;SDS011;40710;51.120;13.136;2023-06-22T08:47:08;13.49;;;13.49;;
54328;SDS011;40710;51.120;13.136;2023-06-22T08:49:32;16.14;;;16.14;;
54328;SDS011;40710;51.120;13.136;2023-06-22T08:51:57;13.04;;;13.04;;
54328;SDS011;40710;51.120;13.136;2023-06-22T08:54:21;13.49;;;13.49;;
54328;SDS011;40710;51.120;13.136;2023-06-22T08:56:46;13.42;;;13.42;;
54328;SDS011;40710;51.120;13.136;2023-06-22T08:59:11;13.17;;;13.17;;
54328;SDS011;40710;51.120;13.136;2023-06-22T09:01:35;12.03;;;12.03;;
54328;SDS011;40710;51.120;13.136;2023-06-22T09:04:00;11.81;;;11.81;;
54328;SDS011;40710;51.120;13.136;2023-06-22T09:06:25;11.46;;;11.46;;
54328;SDS011;40710;51.120;13.136;2023-06-22T09:08:50;11.29;;;11.29;;
54328;SDS011;40710;51.120;13.136;2023-06-22T09:11:14;13.24;;;13.24;;
54328;SDS011;40710;51.120;13.136;2023-06-22T09:13:39;12.02;;;12.02;;
54328;SDS011;40710;51.120;13.136;2023-06-22T09:16:04;13.61;;;13.61;;
54328;SDS011;40710;51.120;13.136;2023-06-22T09:18:28;12.35;;;12.35;;
54328;SDS011;40710;51.120;13.136;2023-06-22T09:20:53;11.28;;;11.28;;
54328;SDS011;40710;51.120;13.136;2023-06-22T09:23:17;11.26;;;11.26;;
54328;SDS011;40710;51.120;13.136;2023-06-22T09:25:42;11.78;;;11.78;;
54328;SDS011;40710;51.120;13.136;2023-06-22T09:28:06;11.22;;;11.22;;
54328;SDS011;40710;51.120;13.136;2023-06-22T09:30:31;10.91;;;10.91;;
54328;SDS011;40710;51.120;13.136;2023-06-22T09:32:55;10.10;;;10.10;;
54328;SDS011;40710;51.120;13.136;2023-06-22T09:35:20;10.20;;;10.20;;
54328;SDS011;40710;51.120;13.136;2023-06-22T09:37:44;10.00;;;10.00;;
54328;SDS011;40710;51.120;13.136;2023-06-22T09:40:09;10.61;;;10.61;;
54328;SDS011;40710;51.120;13.136;2023-06-22T09:42:35;10.23;;;10.23;;
54328;SDS011;40710;51.120;13.136;2023-06-22T09:44:59;9.89;;;9.89;;
54328;SDS011;40710;51.120;13.136;2023-06-22T09:47:25;9.67;;;9.67;;
54328;SDS011;40710;51.120;13.136;2023-06-22T09:49:50;10.07;;;10.07;;
54328;SDS011;40710;51.120;13.136;2023-06-22T09:52:15;10.05;;;10.05;;
54328;SDS011;40710;51.120;13.136;2023-06-22T09:54:40;10.65;;;10.65;;
54328;SDS011;40710;51.120;13.136;2023-06-22T09:57:04;10.45;;;10.45;;
54328;SDS011;40710;51.120;13.136;2023-06-22T09:59:29;10.42;;;10.42;;
54328;SDS011;40710;51.120;13.136;2023-06-22T10:01:53;10.18;;;10.18;;
54328;SDS011;40710;51.120;13.136;2023-06-22T10:04:18;10.13;;;10.13;;
54328;SDS011;40710;51.120;13.136;2023-06-22T10:06:42;10.36;;;10.36;;
54328;SDS011;40710;51.120;13.136;2023-06-22T10:09:07;10.68;;;10.68;;
54328;SDS011;40710;51.120;13.136;2023-06-22T10:11:32;10.79;;;10.79;;
54328;SDS011;40710;51.120;13.136;2023-06-22T10:13:59;10.86;;;10.86;;
54328;SDS011;40710;51.120;13.136;2023-06-22T10:16:25;10.60;;;10.60;;
54328;SDS011;40710;51.120;13.136;2023-06-22T10:18:54;10.55;;;10.55;;
54328;SDS011;40710;51.120;13.136;2023-06-22T10:21:19;10.69;;;10.69;;
54328;SDS011;40710;51.120;13.136;2023-06-22T10:23:43;11.04;;;11.04;;
54328;SDS011;40710;51.120;13.136;2023-06-22T10:26:08;11.01;;;11.01;;
54328;SDS011;40710;51.120;13.136;2023-06-22T10:28:32;10.91;;;10.91;;
54328;SDS011;40710;51.120;13.136;2023-06-22T10:30:57;10.59;;;10.59;;
54328;SDS011;40710;51.120;13.136;2023-06-22T10:33:22;10.78;;;10.78;;
54328;SDS011;40710;51.120;13.136;2023-06-22T10:35:46;10.82;;;10.82;;
54328;SDS011;40710;51.120;13.136;2023-06-22T10:38:11;10.58;;;10.58;;
54328;SDS011;40710;51.120;13.136;2023-06-22T10:40:35;10.41;;;10.41;;
54328;SDS011;40710;51.120;13.136;2023-06-22T10:43:00;10.43;;;10.43;;
54328;SDS011;40710;51.120;13.136;2023-06-22T10:45:24;10.60;;;10.60;;
54328;SDS011;40710;51.120;13.136;2023-06-22T10:47:49;10.28;;;10.28;;
54328;SDS011;40710;51.120;13.136;2023-06-22T10:50:13;10.03;;;10.03;;
54328;SDS011;40710;51.120;13.136;2023-06-22T10:52:38;10.36;;;10.36;;
54328;SDS011;40710;51.120;13.136;2023-06-22T10:55:04;11.48;;;11.48;;
54328;SDS011;40710;51.120;13.136;2023-06-22T10:57:28;10.85;;;10.85;;
54328;SDS011;40710;51.120;13.136;2023-06-22T10:59:53;10.91;;;10.91;;
54328;SDS011;40710;51.120;13.136;2023-06-22T11:02:18;11.72;;;11.72;;
54328;SDS011;40710;51.120;13.136;2023-06-22T11:04:42;12.01;;;12.01;;
54328;SDS011;40710;51.120;13.136;2023-06-22T11:07:07;12.26;;;12.26;;
54328;SDS011;40710;51.120;13.136;2023-06-22T11:09:31;11.57;;;11.57;;
54328;SDS011;40710;51.120;13.136;2023-06-22T11:11:56;10.90;;;10.90;;
54328;SDS011;40710;51.120;13.136;2023-06-22T11:14:20;10.92;;;10.92;;
54328;SDS011;40710;51.120;13.136;2023-06-22T11:16:46;12.27;;;12.27;;
54328;SDS011;40710;51.120;13.136;2023-06-22T11:19:10;13.18;;;13.18;;
54328;SDS011;40710;51.120;13.136;2023-06-22T11:21:35;13.01;;;13.01;;
54328;SDS011;40710;51.120;13.136;2023-06-22T11:23:59;11.06;;;11.06;;
54328;SDS011;40710;51.120;13.136;2023-06-22T11:26:24;10.98;;;10.98;;
54328;SDS011;40710;51.120;13.136;2023-06-22T11:28:51;11.18;;;11.18;;
54328;SDS011;40710;51.120;13.136;2023-06-22T11:31:15;11.21;;;11.21;;
54328;SDS011;40710;51.120;13.136;2023-06-22T11:33:40;11.30;;;11.30;;
54328;SDS011;40710;51.120;13.136;2023-06-22T11:36:05;10.93;;;10.93;;
54328;SDS011;40710;51.120;13.136;2023-06-22T11:38:30;10.92;;;10.92;;
54328;SDS011;40710;51.120;13.136;2023-06-22T11:40:55;11.11;;;11.11;;
54328;SDS011;40710;51.120;13.136;2023-06-22T11:43:19;10.75;;;10.75;;
54328;SDS011;40710;51.120;13.136;2023-06-22T11:45:44;10.81;;;10.81;;
54328;SDS011;40710;51.120;13.136;2023-06-22T11:48:08;10.27;;;10.27;;
54328;SDS011;40710;51.120;13.136;2023-06-22T11:50:33;10.63;;;10.63;;
54328;SDS011;40710;51.120;13.136;2023-06-22T11:53:00;10.79;;;10.79;;
54328;SDS011;40710;51.120;13.136;2023-06-22T11:55:24;11.27;;;11.27;;
54328;SDS011;40710;51.120;13.136;2023-06-22T11:57:53;10.55;;;10.55;;
54328;SDS011;40710;51.120;13.136;2023-06-22T12:00:19;10.84;;;10.84;;
54328;SDS011;40710;51.120;13.136;2023-06-22T12:02:45;10.55;;;10.55;;
54328;SDS011;40710;51.120;13.136;2023-06-22T12:05:09;10.64;;;10.64;;
54328;SDS011;40710;51.120;13.136;2023-06-22T12:07:34;10.40;;;10.40;;
54328;SDS011;40710;51.120;13.136;2023-06-22T12:09:58;10.41;;;10.41;;
54328;SDS011;40710;51.120;13.136;2023-06-22T12:12:23;10.94;;;10.94;;
54328;SDS011;40710;51.120;13.136;2023-06-22T12:14:48;10.70;;;10.70;;
54328;SDS011;40710;51.120;13.136;2023-06-22T12:17:12;11.17;;;11.17;;
54328;SDS011;40710;51.120;13.136;2023-06-22T12:19:37;10.93;;;10.93;;
54328;SDS011;40710;51.120;13.136;2023-06-22T12:22:01;10.40;;;10.40;;
54328;SDS011;40710;51.120;13.136;2023-06-22T12:24:26;10.94;;;10.94;;
54328;SDS011;40710;51.120;13.136;2023-06-22T12:26:50;10.36;;;10.36;;
54328;SDS011;40710;51.120;13.136;2023-06-22T12:29:15;10.74;;;10.74;;
54328;SDS011;40710;51.120;13.136;2023-06-22T12:31:39;10.89;;;10.89;;
54328;SDS011;40710;51.120;13.136;2023-06-22T12:34:05;10.46;;;10.46;;
54328;SDS011;40710;51.120;13.136;2023-06-22T12:36:30;10.96;;;10.96;;
54328;SDS011;40710;51.120;13.136;2023-06-22T12:38:54;10.82;;;10.82;;
54328;SDS011;40710;51.120;13.136;2023-06-22T12:41:19;10.81;;;10.81;;
54328;SDS011;40710;51.120;13.136;2023-06-22T12:43:43;10.59;;;10.59;;
54328;SDS011;40710;51.120;13.136;2023-06-22T12:46:08;10.98;;;10.98;;
54328;SDS011;40710;51.120;13.136;2023-06-22T12:48:32;10.69;;;10.69;;
54328;SDS011;40710;51.120;13.136;2023-06-22T12:50:57;11.01;;;11.01;;
54328;SDS011;40710;51.120;13.136;2023-06-22T12:53:21;10.83;;;10.83;;
54328;SDS011;40710;51.120;13.136;2023-06-22T12:55:47;10.61;;;10.61;;
54328;SDS011;40710;51.120;13.136;2023-06-22T12:58:12;10.92;;;10.92;;
54328;SDS011;40710;51.120;13.136;2023-06-22T13:00:37;11.13;;;11.13;;
54328;SDS011;40710;51.120;13.136;2023-06-22T13:03:02;11.05;;;11.05;;
54328;SDS011;40710;51.120;13.136;2023-06-22T13:05:27;10.66;;;10.66;;
54328;SDS011;40710;51.120;13.136;2023-06-22T13:07:51;10.81;;;10.81;;
54328;SDS011;40710;51.120;13.136;2023-06-22T13:10:16;11.11;;;11.11;;
54328;SDS011;40710;51.120;13.136;2023-06-22T13:12:40;10.77;;;10.77;;
54328;SDS011;40710;51.120;13.136;2023-06-22T13:15:05;10.85;;;10.85;;
54328;SDS011;40710;51.120;13.136;2023-06-22T13:17:30;11.06;;;11.06;;
54328;SDS011;40710;51.120;13.136;2023-06-22T13:19:55;11.03;;;11.03;;
54328;SDS011;40710;51.120;13.136;2023-06-22T13:22:32;11.10;;;11.10;;
54328;SDS011;40710;51.120;13.136;2023-06-22T13:25:03;10.74;;;10.74;;
54328;SDS011;40710;51.120;13.136;2023-06-22T13:27:28;10.72;;;10.72;;
54328;SDS011;40710;51.120;13.136;2023-06-22T13:29:53;10.86;;;10.86;;
54328;SDS011;40710;51.120;13.136;2023-06-22T13:32:17;10.78;;;10.78;;
54328;SDS011;40710;51.120;13.136;2023-06-22T13:34:42;10.96;;;10.96;;
54328;SDS011;40710;51.120;13.136;2023-06-22T13:37:07;10.59;;;10.59;;
54328;SDS011;40710;51.120;13.136;2023-06-22T13:39:32;10.85;;;10.85;;
54328;SDS011;40710;51.120;13.136;2023-06-22T13:41:57;10.72;;;10.72;;
54328;SDS011;40710;51.120;13.136;2023-06-22T13:44:22;10.99;;;10.99;;
54328;SDS011;40710;51.120;13.136;2023-06-22T13:46:46;10.64;;;10.64;;
54328;SDS011;40710;51.120;13.136;2023-06-22T13:49:11;10.66;;;10.66;;
54328;SDS011;40710;51.120;13.136;2023-06-22T13:51:36;10.45;;;10.45;;
54328;SDS011;40710;51.120;13.136;2023-06-22T13:54:00;10.92;;;10.92;;
54328;SDS011;40710;51.120;13.136;2023-06-22T13:56:25;10.32;;;10.32;;
54328;SDS011;40710;51.120;13.136;2023-06-22T13:58:49;10.79;;;10.79;;
54328;SDS011;40710;51.120;13.136;2023-06-22T14:01:14;10.73;;;10.73;;
54328;SDS011;40710;51.120;13.136;2023-06-22T14:03:38;10.61;;;10.61;;
54328;SDS011;40710;51.120;13.136;2023-06-22T14:06:03;10.98;;;10.98;;